sensor_id;sensor_type;location;lat;lon;timestamp;temperature;humidity
23629;DHT22;11991;57.150;-2.134;2022-11-14T00:00:48;11.60;99.90
23629;DHT22;11991;57.150;-2.134;2022-11-14T00:03:34;11.60;99.90
23629;DHT22;11991;57.150;-2.134;2022-11-14T00:06:20;11.60;99.90
23629;DHT22;11991;57.150;-2.134;2022-11-14T00:09:06;11.60;99.90
23629;DHT22;11991;57.150;-2.134;2022-11-14T00:11:51;11.60;99.90
23629;DHT22;11991;57.150;-2.134;2022-11-14T00:14:37;11.60;99.90
23629;DHT22;11991;57.150;-2.134;2022-11-14T00:17:23;11.70;99.90
23629;DHT22;11991;57.150;-2.134;2022-11-14T00:20:10;11.70;99.90
23629;DHT22;11991;57.150;-2.134;2022-11-14T00:22:56;11.70;99.90
23629;DHT22;11991;57.150;-2.134;2022-11-14T00:25:43;11.60;99.90
23629;DHT22;11991;57.150;-2.134;2022-11-14T00:28:28;11.70;99.90
23629;DHT22;11991;57.150;-2.134;2022-11-14T00:31:15;11.70;99.90
23629;DHT22;11991;57.150;-2.134;2022-11-14T00:34:01;11.70;99.90
23629;DHT22;11991;57.150;-2.134;2022-11-14T00:36:47;11.70;99.90
23629;DHT22;11991;57.150;-2.134;2022-11-14T00:39:33;11.70;99.90
23629;DHT22;11991;57.150;-2.134;2022-11-14T00:42:19;11.70;99.90
23629;DHT22;11991;57.150;-2.134;2022-11-14T00:45:05;11.70;99.90
23629;DHT22;11991;57.150;-2.134;2022-11-14T00:47:51;11.70;99.90
23629;DHT22;11991;57.150;-2.134;2022-11-14T00:50:37;11.70;99.90
23629;DHT22;11991;57.150;-2.134;2022-11-14T00:53:23;11.70;99.90
23629;DHT22;11991;57.150;-2.134;2022-11-14T00:56:09;11.60;99.90
23629;DHT22;11991;57.150;-2.134;2022-11-14T00:58:55;11.60;99.90
23629;DHT22;11991;57.150;-2.134;2022-11-14T01:01:41;11.60;99.90
23629;DHT22;11991;57.150;-2.134;2022-11-14T01:04:27;11.60;99.90
23629;DHT22;11991;57.150;-2.134;2022-11-14T01:07:13;11.60;99.90
23629;DHT22;11991;57.150;-2.134;2022-11-14T01:09:58;11.60;99.90
23629;DHT22;11991;57.150;-2.134;2022-11-14T01:12:44;11.50;99.90
23629;DHT22;11991;57.150;-2.134;2022-11-14T01:15:30;11.50;99.90
23629;DHT22;11991;57.150;-2.134;2022-11-14T01:18:18;11.50;99.90
23629;DHT22;11991;57.150;-2.134;2022-11-14T01:21:06;11.50;99.90
23629;DHT22;11991;57.150;-2.134;2022-11-14T01:23:53;11.50;99.90
23629;DHT22;11991;57.150;-2.134;2022-11-14T01:26:38;11.50;99.90
23629;DHT22;11991;57.150;-2.134;2022-11-14T01:29:24;11.50;99.90
23629;DHT22;11991;57.150;-2.134;2022-11-14T01:32:10;11.50;99.90
23629;DHT22;11991;57.150;-2.134;2022-11-14T01:34:55;11.50;99.90
23629;DHT22;11991;57.150;-2.134;2022-11-14T01:37:41;11.50;99.90
23629;DHT22;11991;57.150;-2.134;2022-11-14T01:40:27;11.50;99.90
23629;DHT22;11991;57.150;-2.134;2022-11-14T01:46:29;11.40;99.90
23629;DHT22;11991;57.150;-2.134;2022-11-14T01:49:19;11.40;99.90
23629;DHT22;11991;57.150;-2.134;2022-11-14T01:52:13;11.50;99.90
23629;DHT22;11991;57.150;-2.134;2022-11-14T01:55:04;11.50;99.90
23629;DHT22;11991;57.150;-2.134;2022-11-14T01:57:50;11.50;99.90
23629;DHT22;11991;57.150;-2.134;2022-11-14T02:00:36;11.50;99.90
23629;DHT22;11991;57.150;-2.134;2022-11-14T02:03:22;11.50;99.90
23629;DHT22;11991;57.150;-2.134;2022-11-14T02:06:11;11.50;99.90
23629;DHT22;11991;57.150;-2.134;2022-11-14T02:08:59;11.40;99.90
23629;DHT22;11991;57.150;-2.134;2022-11-14T02:11:47;11.40;99.90
23629;DHT22;11991;57.150;-2.134;2022-11-14T02:14:34;11.40;99.90
23629;DHT22;11991;57.150;-2.134;2022-11-14T02:17:20;11.40;99.90
23629;DHT22;11991;57.150;-2.134;2022-11-14T02:20:19;11.40;99.90
23629;DHT22;11991;57.150;-2.134;2022-11-14T02:23:05;11.40;99.90
23629;DHT22;11991;57.150;-2.134;2022-11-14T02:25:51;11.40;99.90
23629;DHT22;11991;57.150;-2.134;2022-11-14T02:28:37;11.40;99.90
23629;DHT22;11991;57.150;-2.134;2022-11-14T02:31:22;11.40;99.90
23629;DHT22;11991;57.150;-2.134;2022-11-14T02:34:08;11.50;99.90
23629;DHT22;11991;57.150;-2.134;2022-11-14T02:36:54;11.50;99.90
23629;DHT22;11991;57.150;-2.134;2022-11-14T02:39:40;11.50;99.90
23629;DHT22;11991;57.150;-2.134;2022-11-14T02:42:26;11.50;99.90
23629;DHT22;11991;57.150;-2.134;2022-11-14T02:45:12;11.50;99.90
23629;DHT22;11991;57.150;-2.134;2022-11-14T02:47:58;11.50;99.90
23629;DHT22;11991;57.150;-2.134;2022-11-14T02:50:47;11.50;99.90
23629;DHT22;11991;57.150;-2.134;2022-11-14T02:53:33;11.50;99.90
23629;DHT22;11991;57.150;-2.134;2022-11-14T02:56:19;11.50;99.90
23629;DHT22;11991;57.150;-2.134;2022-11-14T02:59:04;11.50;99.90
23629;DHT22;11991;57.150;-2.134;2022-11-14T03:01:50;11.50;99.90
23629;DHT22;11991;57.150;-2.134;2022-11-14T03:04:36;11.50;99.90
23629;DHT22;11991;57.150;-2.134;2022-11-14T03:07:22;11.50;99.90
23629;DHT22;11991;57.150;-2.134;2022-11-14T03:10:09;11.50;99.90
23629;DHT22;11991;57.150;-2.134;2022-11-14T03:12:55;11.50;99.90
23629;DHT22;11991;57.150;-2.134;2022-11-14T03:15:42;11.50;99.90
23629;DHT22;11991;57.150;-2.134;2022-11-14T03:18:28;11.50;99.90
23629;DHT22;11991;57.150;-2.134;2022-11-14T03:21:17;11.50;99.90
23629;DHT22;11991;57.150;-2.134;2022-11-14T03:24:03;11.50;99.90
23629;DHT22;11991;57.150;-2.134;2022-11-14T03:26:49;11.50;99.90
23629;DHT22;11991;57.150;-2.134;2022-11-14T03:29:34;11.50;99.90
23629;DHT22;11991;57.150;-2.134;2022-11-14T03:32:20;11.50;99.90
23629;DHT22;11991;57.150;-2.134;2022-11-14T03:35:06;11.50;99.90
23629;DHT22;11991;57.150;-2.134;2022-11-14T03:37:59;11.40;99.90
23629;DHT22;11991;57.150;-2.134;2022-11-14T03:40:45;11.40;99.90
23629;DHT22;11991;57.150;-2.134;2022-11-14T03:43:32;11.40;99.90
23629;DHT22;11991;57.150;-2.134;2022-11-14T03:46:19;11.40;99.90
23629;DHT22;11991;57.150;-2.134;2022-11-14T03:49:05;11.40;99.90
23629;DHT22;11991;57.150;-2.134;2022-11-14T03:51:51;11.40;99.90
23629;DHT22;11991;57.150;-2.134;2022-11-14T03:55:02;11.40;99.90
23629;DHT22;11991;57.150;-2.134;2022-11-14T03:57:47;11.40;99.90
23629;DHT22;11991;57.150;-2.134;2022-11-14T04:00:33;11.50;99.90
23629;DHT22;11991;57.150;-2.134;2022-11-14T04:03:19;11.50;99.90
23629;DHT22;11991;57.150;-2.134;2022-11-14T04:06:05;11.50;99.90
23629;DHT22;11991;57.150;-2.134;2022-11-14T04:08:51;11.50;99.90
23629;DHT22;11991;57.150;-2.134;2022-11-14T04:11:37;11.50;99.90
23629;DHT22;11991;57.150;-2.134;2022-11-14T04:14:22;11.50;99.90
23629;DHT22;11991;57.150;-2.134;2022-11-14T04:17:08;11.50;99.90
23629;DHT22;11991;57.150;-2.134;2022-11-14T04:19:54;11.50;99.90
23629;DHT22;11991;57.150;-2.134;2022-11-14T04:22:40;11.50;99.90
23629;DHT22;11991;57.150;-2.134;2022-11-14T04:25:25;11.50;99.90
23629;DHT22;11991;57.150;-2.134;2022-11-14T04:28:12;11.60;99.90
23629;DHT22;11991;57.150;-2.134;2022-11-14T04:30:58;11.60;99.90
23629;DHT22;11991;57.150;-2.134;2022-11-14T04:33:44;11.60;99.90
23629;DHT22;11991;57.150;-2.134;2022-11-14T04:36:30;11.60;99.90
23629;DHT22;11991;57.150;-2.134;2022-11-14T04:39:17;11.60;99.90
23629;DHT22;11991;57.150;-2.134;2022-11-14T04:42:02;11.60;99.90
23629;DHT22;11991;57.150;-2.134;2022-11-14T04:44:48;11.60;99.90
23629;DHT22;11991;57.150;-2.134;2022-11-14T04:47:34;11.60;99.90
23629;DHT22;11991;57.150;-2.134;2022-11-14T04:50:19;11.70;99.90
23629;DHT22;11991;57.150;-2.134;2022-11-14T04:53:05;11.60;99.90
23629;DHT22;11991;57.150;-2.134;2022-11-14T04:55:51;11.70;99.90
23629;DHT22;11991;57.150;-2.134;2022-11-14T04:58:37;11.70;99.90
23629;DHT22;11991;57.150;-2.134;2022-11-14T05:01:22;11.70;99.90
23629;DHT22;11991;57.150;-2.134;2022-11-14T05:04:08;11.70;99.90
23629;DHT22;11991;57.150;-2.134;2022-11-14T05:06:54;11.70;99.90
23629;DHT22;11991;57.150;-2.134;2022-11-14T05:09:40;11.70;99.90
23629;DHT22;11991;57.150;-2.134;2022-11-14T05:12:26;11.70;99.90
23629;DHT22;11991;57.150;-2.134;2022-11-14T05:15:12;11.70;99.90
23629;DHT22;11991;57.150;-2.134;2022-11-14T05:17:57;11.70;99.90
23629;DHT22;11991;57.150;-2.134;2022-11-14T05:20:43;11.70;99.90
23629;DHT22;11991;57.150;-2.134;2022-11-14T05:23:29;11.70;99.90
23629;DHT22;11991;57.150;-2.134;2022-11-14T05:26:16;11.70;99.90
23629;DHT22;11991;57.150;-2.134;2022-11-14T05:29:03;11.70;99.90
23629;DHT22;11991;57.150;-2.134;2022-11-14T05:31:49;11.70;99.90
23629;DHT22;11991;57.150;-2.134;2022-11-14T05:34:34;11.70;99.90
23629;DHT22;11991;57.150;-2.134;2022-11-14T05:37:20;11.70;99.90
23629;DHT22;11991;57.150;-2.134;2022-11-14T05:40:06;11.70;99.90
23629;DHT22;11991;57.150;-2.134;2022-11-14T05:42:55;11.70;99.90
23629;DHT22;11991;57.150;-2.134;2022-11-14T05:45:41;11.70;99.90
23629;DHT22;11991;57.150;-2.134;2022-11-14T05:48:28;11.70;99.90
23629;DHT22;11991;57.150;-2.134;2022-11-14T05:51:15;11.70;99.90
23629;DHT22;11991;57.150;-2.134;2022-11-14T05:54:00;11.70;99.90
23629;DHT22;11991;57.150;-2.134;2022-11-14T05:56:46;11.70;99.90
23629;DHT22;11991;57.150;-2.134;2022-11-14T05:59:32;11.70;99.90
23629;DHT22;11991;57.150;-2.134;2022-11-14T06:02:18;11.70;99.90
23629;DHT22;11991;57.150;-2.134;2022-11-14T06:05:04;11.70;99.90
23629;DHT22;11991;57.150;-2.134;2022-11-14T06:07:55;11.70;99.90
23629;DHT22;11991;57.150;-2.134;2022-11-14T06:10:41;11.80;99.90
23629;DHT22;11991;57.150;-2.134;2022-11-14T06:13:27;11.70;99.90
23629;DHT22;11991;57.150;-2.134;2022-11-14T06:16:15;11.70;99.90
23629;DHT22;11991;57.150;-2.134;2022-11-14T06:19:01;11.70;99.90
23629;DHT22;11991;57.150;-2.134;2022-11-14T06:21:47;11.80;99.90
23629;DHT22;11991;57.150;-2.134;2022-11-14T06:24:33;11.80;99.90
23629;DHT22;11991;57.150;-2.134;2022-11-14T06:27:19;11.80;99.90
23629;DHT22;11991;57.150;-2.134;2022-11-14T06:30:05;11.80;99.90
23629;DHT22;11991;57.150;-2.134;2022-11-14T06:32:56;11.70;99.90
23629;DHT22;11991;57.150;-2.134;2022-11-14T06:35:43;11.80;99.90
23629;DHT22;11991;57.150;-2.134;2022-11-14T06:38:33;11.70;99.90
23629;DHT22;11991;57.150;-2.134;2022-11-14T06:41:21;11.70;99.90
23629;DHT22;11991;57.150;-2.134;2022-11-14T06:44:07;11.80;99.90
23629;DHT22;11991;57.150;-2.134;2022-11-14T06:46:53;11.80;99.90
23629;DHT22;11991;57.150;-2.134;2022-11-14T06:49:39;11.80;99.90
23629;DHT22;11991;57.150;-2.134;2022-11-14T06:52:26;11.70;99.90
23629;DHT22;11991;57.150;-2.134;2022-11-14T06:55:12;11.80;99.90
23629;DHT22;11991;57.150;-2.134;2022-11-14T06:57:58;11.80;99.90
23629;DHT22;11991;57.150;-2.134;2022-11-14T07:00:44;11.80;99.90
23629;DHT22;11991;57.150;-2.134;2022-11-14T07:03:30;11.80;99.90
23629;DHT22;11991;57.150;-2.134;2022-11-14T07:06:17;11.80;99.90
23629;DHT22;11991;57.150;-2.134;2022-11-14T07:09:03;11.80;99.90
23629;DHT22;11991;57.150;-2.134;2022-11-14T07:11:49;11.80;99.90
23629;DHT22;11991;57.150;-2.134;2022-11-14T07:14:35;11.80;99.90
23629;DHT22;11991;57.150;-2.134;2022-11-14T07:17:21;11.80;99.90
23629;DHT22;11991;57.150;-2.134;2022-11-14T07:20:14;11.80;99.90
23629;DHT22;11991;57.150;-2.134;2022-11-14T07:23:00;11.80;99.90
23629;DHT22;11991;57.150;-2.134;2022-11-14T07:25:45;11.80;99.90
23629;DHT22;11991;57.150;-2.134;2022-11-14T07:28:32;11.80;99.90
23629;DHT22;11991;57.150;-2.134;2022-11-14T07:31:19;11.80;99.90
23629;DHT22;11991;57.150;-2.134;2022-11-14T07:34:07;11.80;99.90
23629;DHT22;11991;57.150;-2.134;2022-11-14T07:36:53;11.80;99.90
23629;DHT22;11991;57.150;-2.134;2022-11-14T07:39:39;11.80;99.90
23629;DHT22;11991;57.150;-2.134;2022-11-14T07:42:28;11.80;99.90
23629;DHT22;11991;57.150;-2.134;2022-11-14T07:45:14;11.70;99.90
23629;DHT22;11991;57.150;-2.134;2022-11-14T07:48:01;11.80;99.90
23629;DHT22;11991;57.150;-2.134;2022-11-14T07:50:47;11.80;99.90
23629;DHT22;11991;57.150;-2.134;2022-11-14T07:53:33;11.80;99.90
23629;DHT22;11991;57.150;-2.134;2022-11-14T07:56:20;11.80;99.90
23629;DHT22;11991;57.150;-2.134;2022-11-14T07:59:06;11.80;99.90
23629;DHT22;11991;57.150;-2.134;2022-11-14T08:01:52;11.80;99.90
23629;DHT22;11991;57.150;-2.134;2022-11-14T08:04:38;11.80;99.90
23629;DHT22;11991;57.150;-2.134;2022-11-14T08:07:25;11.80;99.90
23629;DHT22;11991;57.150;-2.134;2022-11-14T08:10:11;11.80;99.90
23629;DHT22;11991;57.150;-2.134;2022-11-14T08:13:03;11.80;99.90
23629;DHT22;11991;57.150;-2.134;2022-11-14T08:16:09;11.80;99.90
23629;DHT22;11991;57.150;-2.134;2022-11-14T08:18:59;11.80;99.90
23629;DHT22;11991;57.150;-2.134;2022-11-14T08:21:44;11.80;99.90
23629;DHT22;11991;57.150;-2.134;2022-11-14T08:24:31;11.80;99.90
23629;DHT22;11991;57.150;-2.134;2022-11-14T08:27:16;11.80;99.90
23629;DHT22;11991;57.150;-2.134;2022-11-14T08:30:03;11.80;99.90
23629;DHT22;11991;57.150;-2.134;2022-11-14T08:32:49;11.90;99.90
23629;DHT22;11991;57.150;-2.134;2022-11-14T08:35:35;11.90;99.90
23629;DHT22;11991;57.150;-2.134;2022-11-14T08:38:20;11.90;99.90
23629;DHT22;11991;57.150;-2.134;2022-11-14T08:41:06;11.90;99.90
23629;DHT22;11991;57.150;-2.134;2022-11-14T08:43:52;11.80;99.90
23629;DHT22;11991;57.150;-2.134;2022-11-14T08:46:38;11.80;99.90
23629;DHT22;11991;57.150;-2.134;2022-11-14T08:49:24;11.90;99.90
23629;DHT22;11991;57.150;-2.134;2022-11-14T08:52:11;11.80;99.90
23629;DHT22;11991;57.150;-2.134;2022-11-14T08:55:01;11.90;99.90
23629;DHT22;11991;57.150;-2.134;2022-11-14T08:57:48;11.90;99.90
23629;DHT22;11991;57.150;-2.134;2022-11-14T09:00:34;11.80;99.90
23629;DHT22;11991;57.150;-2.134;2022-11-14T09:03:20;11.90;99.90
23629;DHT22;11991;57.150;-2.134;2022-11-14T09:06:06;11.80;99.90
23629;DHT22;11991;57.150;-2.134;2022-11-14T09:08:52;11.80;99.90
23629;DHT22;11991;57.150;-2.134;2022-11-14T09:11:38;11.80;99.90
23629;DHT22;11991;57.150;-2.134;2022-11-14T09:14:24;11.80;99.90
23629;DHT22;11991;57.150;-2.134;2022-11-14T09:17:10;11.80;99.90
23629;DHT22;11991;57.150;-2.134;2022-11-14T09:19:56;11.80;99.90
23629;DHT22;11991;57.150;-2.134;2022-11-14T09:22:42;11.80;99.90
23629;DHT22;11991;57.150;-2.134;2022-11-14T09:25:28;11.70;99.90
23629;DHT22;11991;57.150;-2.134;2022-11-14T09:28:15;11.80;99.90
23629;DHT22;11991;57.150;-2.134;2022-11-14T09:31:05;11.70;99.90
23629;DHT22;11991;57.150;-2.134;2022-11-14T09:33:51;11.80;99.90
23629;DHT22;11991;57.150;-2.134;2022-11-14T09:36:36;11.80;99.90
23629;DHT22;11991;57.150;-2.134;2022-11-14T09:39:22;11.70;99.90
23629;DHT22;11991;57.150;-2.134;2022-11-14T09:42:30;11.80;99.90
23629;DHT22;11991;57.150;-2.134;2022-11-14T09:45:20;11.80;99.90
23629;DHT22;11991;57.150;-2.134;2022-11-14T09:48:14;11.80;99.90
23629;DHT22;11991;57.150;-2.134;2022-11-14T09:51:19;11.80;99.90
23629;DHT22;11991;57.150;-2.134;2022-11-14T09:54:19;11.80;99.90
23629;DHT22;11991;57.150;-2.134;2022-11-14T09:57:18;11.80;99.90
23629;DHT22;11991;57.150;-2.134;2022-11-14T10:00:19;11.80;99.90
23629;DHT22;11991;57.150;-2.134;2022-11-14T10:09:40;11.80;99.90
23629;DHT22;11991;57.150;-2.134;2022-11-14T10:15:46;11.90;99.90
23629;DHT22;11991;57.150;-2.134;2022-11-14T10:21:44;11.90;99.90
23629;DHT22;11991;57.150;-2.134;2022-11-14T10:27:27;12.00;99.90
23629;DHT22;11991;57.150;-2.134;2022-11-14T10:30:16;12.00;99.90
23629;DHT22;11991;57.150;-2.134;2022-11-14T10:36:29;12.00;99.90
23629;DHT22;11991;57.150;-2.134;2022-11-14T10:40:26;12.00;99.90
23629;DHT22;11991;57.150;-2.134;2022-11-14T10:43:45;12.00;99.90
23629;DHT22;11991;57.150;-2.134;2022-11-14T10:46:36;12.00;99.90
23629;DHT22;11991;57.150;-2.134;2022-11-14T10:49:25;12.00;99.90
23629;DHT22;11991;57.150;-2.134;2022-11-14T10:52:19;12.00;99.90
23629;DHT22;11991;57.150;-2.134;2022-11-14T10:55:18;11.90;99.90
23629;DHT22;11991;57.150;-2.134;2022-11-14T10:58:22;11.90;99.90
23629;DHT22;11991;57.150;-2.134;2022-11-14T11:02:13;11.90;99.90
23629;DHT22;11991;57.150;-2.134;2022-11-14T11:04:34;11.90;99.90
23629;DHT22;11991;57.150;-2.134;2022-11-14T11:07:27;11.90;99.90
23629;DHT22;11991;57.150;-2.134;2022-11-14T11:10:33;11.90;99.90
23629;DHT22;11991;57.150;-2.134;2022-11-14T11:13:50;11.90;99.90
23629;DHT22;11991;57.150;-2.134;2022-11-14T11:16:37;11.90;99.90
23629;DHT22;11991;57.150;-2.134;2022-11-14T11:19:24;11.90;99.90
23629;DHT22;11991;57.150;-2.134;2022-11-14T11:25:29;11.90;99.90
23629;DHT22;11991;57.150;-2.134;2022-11-14T11:28:20;11.90;99.90
23629;DHT22;11991;57.150;-2.134;2022-11-14T11:31:08;11.90;99.90
23629;DHT22;11991;57.150;-2.134;2022-11-14T11:33:54;11.90;99.90
23629;DHT22;11991;57.150;-2.134;2022-11-14T11:36:44;11.90;99.90
23629;DHT22;11991;57.150;-2.134;2022-11-14T11:39:36;11.90;99.90
23629;DHT22;11991;57.150;-2.134;2022-11-14T11:45:45;11.90;99.90
23629;DHT22;11991;57.150;-2.134;2022-11-14T11:48:38;11.90;99.90
23629;DHT22;11991;57.150;-2.134;2022-11-14T11:51:25;11.90;99.90
23629;DHT22;11991;57.150;-2.134;2022-11-14T11:54:24;11.90;99.90
23629;DHT22;11991;57.150;-2.134;2022-11-14T11:57:15;11.90;99.90
23629;DHT22;11991;57.150;-2.134;2022-11-14T12:00:17;11.90;99.90
23629;DHT22;11991;57.150;-2.134;2022-11-14T12:03:08;11.80;99.90
23629;DHT22;11991;57.150;-2.134;2022-11-14T12:11:59;11.80;99.90
23629;DHT22;11991;57.150;-2.134;2022-11-14T12:14:57;11.80;99.90
23629;DHT22;11991;57.150;-2.134;2022-11-14T12:30:30;11.80;99.90
23629;DHT22;11991;57.150;-2.134;2022-11-14T12:36:11;11.80;99.90
23629;DHT22;11991;57.150;-2.134;2022-11-14T12:38:58;11.80;99.90
23629;DHT22;11991;57.150;-2.134;2022-11-14T12:41:45;11.80;99.90
23629;DHT22;11991;57.150;-2.134;2022-11-14T12:44:37;11.80;99.90
23629;DHT22;11991;57.150;-2.134;2022-11-14T12:47:26;11.80;99.90
23629;DHT22;11991;57.150;-2.134;2022-11-14T12:50:40;11.80;99.90
23629;DHT22;11991;57.150;-2.134;2022-11-14T12:59:38;11.80;99.90
23629;DHT22;11991;57.150;-2.134;2022-11-14T13:03:02;11.80;99.90
23629;DHT22;11991;57.150;-2.134;2022-11-14T13:06:18;11.80;99.90
23629;DHT22;11991;57.150;-2.134;2022-11-14T13:13:06;11.70;99.90
23629;DHT22;11991;57.150;-2.134;2022-11-14T13:16:24;11.70;99.90
23629;DHT22;11991;57.150;-2.134;2022-11-14T13:19:45;11.70;99.90
23629;DHT22;11991;57.150;-2.134;2022-11-14T13:23:03;11.70;99.90
23629;DHT22;11991;57.150;-2.134;2022-11-14T13:28:58;11.70;99.90
23629;DHT22;11991;57.150;-2.134;2022-11-14T13:31:49;11.70;99.90
23629;DHT22;11991;57.150;-2.134;2022-11-14T13:34:58;11.70;99.90
23629;DHT22;11991;57.150;-2.134;2022-11-14T13:37:59;11.60;99.90
23629;DHT22;11991;57.150;-2.134;2022-11-14T13:50:24;11.60;99.90
23629;DHT22;11991;57.150;-2.134;2022-11-14T13:53:15;11.60;99.90
23629;DHT22;11991;57.150;-2.134;2022-11-14T14:02:29;11.60;99.90
23629;DHT22;11991;57.150;-2.134;2022-11-14T14:11:34;11.50;99.90
23629;DHT22;11991;57.150;-2.134;2022-11-14T14:26:31;11.70;99.90
23629;DHT22;11991;57.150;-2.134;2022-11-14T14:32:14;11.60;99.90
23629;DHT22;11991;57.150;-2.134;2022-11-14T14:35:28;11.70;99.90
23629;DHT22;11991;57.150;-2.134;2022-11-14T14:38:22;11.70;99.90
23629;DHT22;11991;57.150;-2.134;2022-11-14T14:41:11;11.80;99.90
23629;DHT22;11991;57.150;-2.134;2022-11-14T14:43:59;11.80;99.90
23629;DHT22;11991;57.150;-2.134;2022-11-14T14:46:45;11.80;99.90
23629;DHT22;11991;57.150;-2.134;2022-11-14T14:50:03;11.80;99.90
23629;DHT22;11991;57.150;-2.134;2022-11-14T14:53:03;11.80;99.90
23629;DHT22;11991;57.150;-2.134;2022-11-14T14:55:53;11.80;99.90
23629;DHT22;11991;57.150;-2.134;2022-11-14T14:58:39;11.70;99.90
23629;DHT22;11991;57.150;-2.134;2022-11-14T15:01:33;11.80;99.90
23629;DHT22;11991;57.150;-2.134;2022-11-14T15:04:24;11.70;99.90
23629;DHT22;11991;57.150;-2.134;2022-11-14T15:07:21;11.80;99.90
23629;DHT22;11991;57.150;-2.134;2022-11-14T15:10:20;11.80;99.90
23629;DHT22;11991;57.150;-2.134;2022-11-14T15:13:10;11.80;99.90
23629;DHT22;11991;57.150;-2.134;2022-11-14T15:15:59;11.80;99.90
23629;DHT22;11991;57.150;-2.134;2022-11-14T15:18:47;11.80;99.90
23629;DHT22;11991;57.150;-2.134;2022-11-14T15:21:34;11.80;99.90
23629;DHT22;11991;57.150;-2.134;2022-11-14T15:24:21;11.80;99.90
23629;DHT22;11991;57.150;-2.134;2022-11-14T15:27:17;11.90;99.90
23629;DHT22;11991;57.150;-2.134;2022-11-14T15:30:18;11.80;99.90
23629;DHT22;11991;57.150;-2.134;2022-11-14T15:33:05;11.80;99.90
23629;DHT22;11991;57.150;-2.134;2022-11-14T15:36:16;11.70;99.90
23629;DHT22;11991;57.150;-2.134;2022-11-14T15:39:18;11.60;99.90
23629;DHT22;11991;57.150;-2.134;2022-11-14T15:45:24;11.40;99.90
23629;DHT22;11991;57.150;-2.134;2022-11-14T15:48:17;11.40;99.90
23629;DHT22;11991;57.150;-2.134;2022-11-14T15:51:05;11.30;99.90
23629;DHT22;11991;57.150;-2.134;2022-11-14T15:53:53;11.30;99.90
23629;DHT22;11991;57.150;-2.134;2022-11-14T15:56:39;11.20;99.90
23629;DHT22;11991;57.150;-2.134;2022-11-14T15:59:26;11.20;99.90
23629;DHT22;11991;57.150;-2.134;2022-11-14T16:05:04;11.20;99.90
23629;DHT22;11991;57.150;-2.134;2022-11-14T16:07:51;11.10;99.90
23629;DHT22;11991;57.150;-2.134;2022-11-14T16:10:52;11.10;99.90
23629;DHT22;11991;57.150;-2.134;2022-11-14T16:13:53;11.10;99.90
23629;DHT22;11991;57.150;-2.134;2022-11-14T16:16:40;11.10;99.90
23629;DHT22;11991;57.150;-2.134;2022-11-14T16:19:27;11.10;99.90
23629;DHT22;11991;57.150;-2.134;2022-11-14T16:22:30;11.10;99.90
23629;DHT22;11991;57.150;-2.134;2022-11-14T16:25:24;11.10;99.90
23629;DHT22;11991;57.150;-2.134;2022-11-14T16:28:10;11.10;99.90
23629;DHT22;11991;57.150;-2.134;2022-11-14T16:31:22;11.10;99.90
23629;DHT22;11991;57.150;-2.134;2022-11-14T16:34:17;11.00;99.90
23629;DHT22;11991;57.150;-2.134;2022-11-14T16:37:08;11.10;99.90
23629;DHT22;11991;57.150;-2.134;2022-11-14T16:39:57;11.10;99.90
23629;DHT22;11991;57.150;-2.134;2022-11-14T16:42:44;11.10;99.90
23629;DHT22;11991;57.150;-2.134;2022-11-14T16:45:30;11.00;99.90
23629;DHT22;11991;57.150;-2.134;2022-11-14T16:48:41;11.00;99.90
23629;DHT22;11991;57.150;-2.134;2022-11-14T16:51:28;11.00;99.90
23629;DHT22;11991;57.150;-2.134;2022-11-14T16:54:40;11.00;99.90
23629;DHT22;11991;57.150;-2.134;2022-11-14T16:57:26;11.00;99.90
23629;DHT22;11991;57.150;-2.134;2022-11-14T17:00:13;11.00;99.90
23629;DHT22;11991;57.150;-2.134;2022-11-14T17:02:58;11.00;99.90
23629;DHT22;11991;57.150;-2.134;2022-11-14T17:05:50;11.00;99.90
23629;DHT22;11991;57.150;-2.134;2022-11-14T17:08:36;11.00;99.90
23629;DHT22;11991;57.150;-2.134;2022-11-14T17:11:23;10.90;99.90
23629;DHT22;11991;57.150;-2.134;2022-11-14T17:14:10;11.00;99.90
23629;DHT22;11991;57.150;-2.134;2022-11-14T17:16:56;11.00;99.90
23629;DHT22;11991;57.150;-2.134;2022-11-14T17:19:50;11.00;99.90
23629;DHT22;11991;57.150;-2.134;2022-11-14T17:22:36;11.00;99.90
23629;DHT22;11991;57.150;-2.134;2022-11-14T17:25:22;11.00;99.90
23629;DHT22;11991;57.150;-2.134;2022-11-14T17:28:10;10.90;99.90
23629;DHT22;11991;57.150;-2.134;2022-11-14T17:30:56;11.00;99.90
23629;DHT22;11991;57.150;-2.134;2022-11-14T17:33:42;11.00;99.90
23629;DHT22;11991;57.150;-2.134;2022-11-14T17:36:30;11.00;99.90
23629;DHT22;11991;57.150;-2.134;2022-11-14T17:39:16;11.00;99.90
23629;DHT22;11991;57.150;-2.134;2022-11-14T17:42:02;11.00;99.90
23629;DHT22;11991;57.150;-2.134;2022-11-14T17:44:49;11.00;99.90
23629;DHT22;11991;57.150;-2.134;2022-11-14T17:47:37;11.00;99.90
23629;DHT22;11991;57.150;-2.134;2022-11-14T17:50:25;11.00;99.90
23629;DHT22;11991;57.150;-2.134;2022-11-14T17:53:11;11.00;99.90
23629;DHT22;11991;57.150;-2.134;2022-11-14T17:55:57;11.00;99.90
23629;DHT22;11991;57.150;-2.134;2022-11-14T17:58:44;11.00;99.90
23629;DHT22;11991;57.150;-2.134;2022-11-14T18:01:31;11.00;99.90
23629;DHT22;11991;57.150;-2.134;2022-11-14T18:04:17;11.00;99.90
23629;DHT22;11991;57.150;-2.134;2022-11-14T18:07:05;11.00;99.90
23629;DHT22;11991;57.150;-2.134;2022-11-14T18:09:52;11.00;99.90
23629;DHT22;11991;57.150;-2.134;2022-11-14T18:12:38;11.00;99.90
23629;DHT22;11991;57.150;-2.134;2022-11-14T18:15:23;11.00;99.90
23629;DHT22;11991;57.150;-2.134;2022-11-14T18:18:12;11.00;99.90
23629;DHT22;11991;57.150;-2.134;2022-11-14T18:21:25;11.00;99.90
23629;DHT22;11991;57.150;-2.134;2022-11-14T18:24:11;11.00;99.90
23629;DHT22;11991;57.150;-2.134;2022-11-14T18:26:58;11.00;99.90
23629;DHT22;11991;57.150;-2.134;2022-11-14T18:29:44;11.00;99.90
23629;DHT22;11991;57.150;-2.134;2022-11-14T18:32:30;11.00;99.90
23629;DHT22;11991;57.150;-2.134;2022-11-14T18:35:16;11.00;99.90
23629;DHT22;11991;57.150;-2.134;2022-11-14T18:38:02;11.10;99.90
23629;DHT22;11991;57.150;-2.134;2022-11-14T18:40:49;11.10;99.90
23629;DHT22;11991;57.150;-2.134;2022-11-14T18:43:41;11.10;99.90
23629;DHT22;11991;57.150;-2.134;2022-11-14T18:46:30;11.10;99.90
23629;DHT22;11991;57.150;-2.134;2022-11-14T18:49:21;11.00;99.90
23629;DHT22;11991;57.150;-2.134;2022-11-14T18:52:09;11.00;99.90
23629;DHT22;11991;57.150;-2.134;2022-11-14T18:55:02;11.00;99.90
23629;DHT22;11991;57.150;-2.134;2022-11-14T18:57:49;11.00;99.90
23629;DHT22;11991;57.150;-2.134;2022-11-14T19:00:37;11.00;99.90
23629;DHT22;11991;57.150;-2.134;2022-11-14T19:03:23;11.00;99.90
23629;DHT22;11991;57.150;-2.134;2022-11-14T19:06:11;11.00;99.90
23629;DHT22;11991;57.150;-2.134;2022-11-14T19:09:04;11.00;99.90
23629;DHT22;11991;57.150;-2.134;2022-11-14T19:11:55;11.00;99.90
23629;DHT22;11991;57.150;-2.134;2022-11-14T19:15:00;11.00;99.90
23629;DHT22;11991;57.150;-2.134;2022-11-14T19:17:46;10.90;99.90
23629;DHT22;11991;57.150;-2.134;2022-11-14T19:20:33;11.00;99.90